Var ligger Evora i Portugal?

 

Evora är en region i Portugal!

Sök efter namnet på en stad:

Évora Monte, Évormbilé, Évora, Évora, Evoredoule

Här finner du plats för Evora på en karta.
För att se hur det för närvarande ser ut, nedan är några bilder av området med online webbkameror.
Du kan också hitta avståndet till de viktigaste städerna i regionen och till städer i övriga Portugal.

Alla platser i världen som heter .


Var ligger Evora på kartan?




Webcams nära Evora

Ponte de Sôr › North-East.


Ponte de Sôr › North-East - Dagtid
Aktuell
Ponte de Sôr › North-East - Aktuell

Vasco Carão › South: Garrocheira, Benavente − Airport.


Vasco Carão › South: Garrocheira, Benavente − Airport - Dagtid
Aktuell
Vasco Carão › South: Garrocheira, Benavente − Airport - Aktuell

Benavente › North-East: AIrport, METAR: BENAV 180005Z 36004KT 17/14 Q1015.


Benavente › North-East: AIrport, METAR: BENAV 180005Z 36004KT 17/14 Q1015 - Dagtid
Aktuell
Benavente › North-East: AIrport, METAR: BENAV 180005Z 36004KT 17/14 Q1015 - Aktuell

Webcams provided by webcams.travel


Avstånd

Var är Evora i förhållande till andra platser?


Topp 10 städer i Portugal och avstånd från Evora.

Stad # Befolkningkmmiles
Lisbon151779811471
Porto2249630285177
Amadora317885612477
Braga4121393327203
Setúbal51171099559
Coimbra6106580180112
Queluz710339812678
Funchal8980411059658
Vila Nova de Gaia970810283176
Loures106623011974



Info

Statistik och Geografi

Portugal består av 15299 städer i 20 regioner.

Regionen Evora har 425 städer.

Var ligger Evora i Portugal?